createdAt,value
2018-03-27T00:02:27.519Z,3.40
2018-03-27T00:04:55.126Z,3.40
2018-03-27T00:07:22.722Z,3.40
2018-03-27T00:09:50.287Z,3.30
2018-03-27T00:12:17.972Z,3.30
2018-03-27T00:14:45.549Z,3.30
2018-03-27T00:17:13.116Z,3.20
2018-03-27T00:19:40.677Z,3.20
2018-03-27T00:22:08.225Z,3.10
2018-03-27T00:24:42.547Z,3.10
2018-03-27T00:27:09.706Z,3.10
2018-03-27T00:29:49.113Z,3.00
2018-03-27T00:32:28.401Z,3.00
2018-03-27T00:35:08.638Z,2.90
2018-03-27T00:37:47.980Z,2.90
2018-03-27T00:40:27.233Z,2.90
2018-03-27T00:42:56.341Z,2.80
2018-03-27T00:45:23.897Z,2.80
2018-03-27T00:47:51.482Z,2.80
2018-03-27T00:50:19.025Z,2.80
2018-03-27T00:52:47.598Z,2.70
2018-03-27T00:55:15.175Z,2.70
2018-03-27T00:57:42.805Z,2.70
2018-03-27T01:00:10.355Z,2.70
2018-03-27T01:02:37.947Z,2.70
2018-03-27T01:05:09.439Z,2.70
2018-03-27T01:07:37.010Z,2.70
2018-03-27T01:10:04.574Z,2.70
2018-03-27T01:12:32.136Z,2.70
2018-03-27T01:15:00.448Z,2.60
2018-03-27T01:17:28.017Z,2.60
2018-03-27T01:19:55.559Z,2.60
2018-03-27T01:22:23.122Z,2.60
2018-03-27T01:24:50.679Z,2.60
2018-03-27T01:27:18.244Z,2.60
2018-03-27T01:29:45.769Z,2.60
2018-03-27T01:32:14.085Z,2.60
2018-03-27T01:34:41.617Z,2.60
2018-03-27T01:37:09.936Z,2.60
2018-03-27T01:39:37.460Z,2.60
2018-03-27T01:42:05.010Z,2.60
2018-03-27T01:44:33.297Z,2.60
2018-03-27T01:47:00.857Z,2.60
2018-03-27T01:49:28.384Z,2.60
2018-03-27T01:51:55.925Z,2.70
2018-03-27T01:54:23.465Z,2.70
2018-03-27T01:56:51.020Z,2.80
2018-03-27T01:59:18.554Z,2.80
2018-03-27T02:01:46.106Z,2.80
2018-03-27T02:04:13.630Z,2.80
2018-03-27T02:06:41.168Z,2.80
2018-03-27T02:09:08.696Z,2.80
2018-03-27T02:11:42.003Z,2.80
2018-03-27T02:14:15.261Z,2.80
2018-03-27T02:16:49.200Z,2.80
2018-03-27T02:19:22.320Z,2.80
2018-03-27T02:21:49.385Z,2.80
2018-03-27T02:24:20.224Z,2.80
2018-03-27T02:26:48.545Z,2.80
2018-03-27T02:29:16.072Z,2.80
2018-03-27T02:31:44.390Z,2.90
2018-03-27T02:34:11.928Z,2.80
2018-03-27T02:36:39.460Z,2.90
2018-03-27T02:39:07.778Z,2.90
2018-03-27T02:41:35.318Z,2.90
2018-03-27T02:44:02.867Z,2.90
2018-03-27T02:46:30.411Z,2.90
2018-03-27T02:48:58.748Z,2.90
2018-03-27T02:51:26.275Z,2.90
2018-03-27T02:53:53.824Z,2.90
2018-03-27T02:56:21.345Z,2.90
2018-03-27T02:58:48.893Z,2.90
2018-03-27T03:01:16.429Z,2.90
2018-03-27T03:03:43.975Z,3.00
2018-03-27T03:06:11.492Z,2.90
2018-03-27T03:08:39.813Z,3.00
2018-03-27T03:11:07.332Z,2.90
2018-03-27T03:13:35.640Z,3.00
2018-03-27T03:16:03.202Z,3.00
2018-03-27T03:18:30.749Z,3.00
2018-03-27T03:20:58.280Z,3.00
2018-03-27T03:23:26.600Z,3.00
2018-03-27T03:25:54.125Z,3.00
2018-03-27T03:28:21.698Z,3.10
2018-03-27T03:30:49.224Z,3.10
2018-03-27T03:33:17.546Z,3.10
2018-03-27T03:35:45.081Z,3.00
2018-03-27T03:38:12.636Z,3.10
2018-03-27T03:40:40.172Z,3.10
2018-03-27T03:43:08.490Z,3.10
2018-03-27T03:45:36.029Z,3.10
2018-03-27T03:48:04.338Z,3.10
2018-03-27T03:50:31.875Z,3.10
2018-03-27T03:52:59.455Z,3.10
2018-03-27T03:55:26.993Z,3.00
2018-03-27T03:57:54.556Z,3.00
2018-03-27T04:00:22.143Z,3.00
2018-03-27T04:02:50.448Z,3.00
2018-03-27T04:05:17.988Z,3.00
2018-03-27T04:07:45.543Z,3.00
2018-03-27T04:10:13.075Z,3.00
2018-03-27T04:12:40.628Z,3.00
2018-03-27T04:15:08.163Z,3.00
2018-03-27T04:17:36.494Z,3.00
2018-03-27T04:20:04.022Z,3.00
2018-03-27T04:22:31.569Z,3.00
2018-03-27T04:24:59.095Z,3.00
2018-03-27T04:27:26.638Z,3.00
2018-03-27T04:29:54.952Z,3.00
2018-03-27T04:32:22.504Z,3.00
2018-03-27T04:34:50.794Z,3.00
2018-03-27T04:37:18.317Z,3.00
2018-03-27T04:39:45.856Z,3.00
2018-03-27T04:42:13.388Z,3.00
2018-03-27T04:44:40.954Z,3.00
2018-03-27T04:47:08.513Z,3.00
2018-03-27T04:49:36.798Z,3.00
2018-03-27T04:52:04.333Z,3.00
2018-03-27T04:54:31.917Z,3.00
2018-03-27T04:56:59.457Z,3.00
2018-03-27T04:59:26.997Z,3.00
2018-03-27T05:01:54.536Z,3.00
2018-03-27T05:04:22.850Z,3.00
2018-03-27T05:06:50.380Z,3.00
2018-03-27T05:09:17.928Z,3.00
2018-03-27T05:11:46.229Z,3.00
2018-03-27T05:14:13.789Z,3.00
2018-03-27T05:16:41.320Z,3.00
2018-03-27T05:19:09.632Z,3.00
2018-03-27T05:21:37.164Z,3.00
2018-03-27T05:24:04.711Z,3.00
2018-03-27T05:26:33.022Z,3.00
2018-03-27T05:29:00.578Z,2.90
2018-03-27T05:31:28.810Z,2.90
2018-03-27T05:33:56.366Z,2.90
2018-03-27T05:36:23.900Z,2.90
2018-03-27T05:38:51.460Z,2.90
2018-03-27T05:41:19.022Z,2.90
2018-03-27T05:43:46.576Z,2.90
2018-03-27T05:46:14.098Z,2.90
2018-03-27T05:48:41.649Z,2.90
2018-03-27T05:51:09.170Z,2.90
2018-03-27T05:53:36.725Z,2.80
2018-03-27T05:56:04.276Z,2.80
2018-03-27T05:58:31.812Z,2.80
2018-03-27T06:00:59.344Z,2.80
2018-03-27T06:03:26.919Z,2.80
2018-03-27T06:05:54.457Z,2.80
2018-03-27T06:08:21.995Z,2.80
2018-03-27T06:10:50.454Z,2.80
2018-03-27T06:13:17.989Z,2.80
2018-03-27T06:15:45.534Z,2.80
2018-03-27T06:18:13.816Z,2.70
2018-03-27T06:20:41.353Z,2.70
2018-03-27T06:23:08.888Z,2.70
2018-03-27T06:25:37.197Z,2.60
2018-03-27T06:28:04.718Z,2.60
2018-03-27T06:30:33.025Z,2.60
2018-03-27T06:33:00.546Z,2.50
2018-03-27T06:35:28.099Z,2.60
2018-03-27T06:37:55.635Z,2.60
2018-03-27T06:40:23.203Z,2.60
2018-03-27T06:42:50.731Z,2.60
2018-03-27T06:45:18.270Z,2.60
2018-03-27T06:47:46.041Z,2.60
2018-03-27T06:50:13.633Z,2.60
2018-03-27T06:52:41.139Z,2.60
2018-03-27T06:55:08.702Z,2.60
2018-03-27T06:57:36.234Z,2.60
2018-03-27T07:00:04.557Z,2.80
2018-03-27T07:02:32.085Z,2.70
2018-03-27T07:04:59.679Z,2.80
2018-03-27T07:07:27.185Z,2.80
2018-03-27T07:09:54.738Z,2.70
2018-03-27T07:12:22.267Z,2.80
2018-03-27T07:14:49.813Z,2.90
2018-03-27T07:17:17.373Z,3.10
2018-03-27T07:19:44.932Z,3.20
2018-03-27T07:22:12.467Z,3.40
2018-03-27T07:24:40.026Z,3.50
2018-03-27T07:27:07.610Z,3.50
2018-03-27T07:29:35.166Z,3.60
2018-03-27T07:32:02.697Z,3.70
2018-03-27T07:34:30.237Z,3.70
2018-03-27T07:36:58.533Z,3.80
2018-03-27T07:39:26.071Z,3.80
2018-03-27T07:41:54.380Z,3.70
2018-03-27T07:44:21.931Z,3.70
2018-03-27T07:46:49.468Z,3.80
2018-03-27T07:49:17.013Z,3.90
2018-03-27T07:51:44.545Z,3.90
2018-03-27T07:54:12.089Z,4.00
2018-03-27T07:56:39.618Z,4.10
2018-03-27T07:59:07.164Z,4.10
2018-03-27T08:01:34.734Z,4.20
2018-03-27T08:04:02.258Z,4.20
2018-03-27T08:06:29.792Z,4.30
2018-03-27T08:08:57.308Z,4.30
2018-03-27T08:11:24.857Z,4.30
2018-03-27T08:13:53.198Z,4.20
2018-03-27T08:16:20.749Z,4.20
2018-03-27T08:18:48.285Z,4.00
2018-03-27T08:21:15.842Z,3.90
2018-03-27T08:23:43.373Z,3.80
2018-03-27T08:26:10.954Z,3.80
2018-03-27T08:28:38.534Z,3.70
2018-03-27T08:31:06.088Z,3.70
2018-03-27T08:33:33.617Z,3.80
2018-03-27T08:36:01.154Z,3.90
2018-03-27T08:38:29.456Z,4.10
2018-03-27T08:40:56.997Z,4.10
2018-03-27T08:43:30.497Z,4.20
2018-03-27T08:45:58.804Z,4.40
2018-03-27T08:48:26.326Z,4.40
2018-03-27T08:50:54.647Z,4.80
2018-03-27T08:53:22.170Z,4.80
2018-03-27T08:55:49.706Z,5.20
2018-03-27T08:58:17.998Z,6.90
2018-03-27T09:00:45.578Z,6.90
2018-03-27T09:03:13.088Z,7.70
2018-03-27T09:05:40.651Z,7.80
2018-03-27T09:08:08.232Z,7.80
2018-03-27T09:10:36.541Z,7.20
2018-03-27T09:13:04.079Z,7.20
2018-03-27T09:15:31.626Z,7.20
2018-03-27T09:17:59.166Z,7.40
2018-03-27T09:20:27.469Z,6.60
2018-03-27T09:22:54.992Z,6.60
2018-03-27T09:25:22.533Z,7.00
2018-03-27T09:27:50.060Z,7.00
2018-03-27T09:30:17.619Z,7.30
2018-03-27T09:32:45.920Z,9.40
2018-03-27T09:35:13.466Z,9.40
2018-03-27T09:37:40.993Z,10.40
2018-03-27T09:40:08.551Z,12.00
2018-03-27T09:42:36.078Z,12.90
2018-03-27T09:45:03.624Z,12.30
2018-03-27T09:47:31.153Z,11.10
2018-03-27T09:49:58.703Z,11.40
2018-03-27T09:52:26.233Z,13.00
2018-03-27T09:54:54.598Z,13.10
2018-03-27T09:57:22.085Z,13.10
2018-03-27T09:59:49.648Z,13.70
2018-03-27T10:02:17.187Z,13.20
2018-03-27T10:04:44.720Z,13.80
2018-03-27T10:07:12.345Z,13.00
2018-03-27T10:09:39.910Z,12.90
2018-03-27T10:12:07.456Z,14.50
2018-03-27T10:14:34.982Z,15.90
2018-03-27T10:17:02.529Z,15.60
2018-03-27T10:19:30.830Z,16.00
2018-03-27T10:21:58.388Z,16.00
2018-03-27T10:24:25.915Z,17.10
2018-03-27T10:26:53.470Z,17.90
2018-03-27T10:29:21.757Z,16.40
2018-03-27T10:31:50.068Z,15.80
2018-03-27T10:34:17.605Z,15.60
2018-03-27T10:36:45.153Z,15.90
2018-03-27T10:39:12.677Z,16.20
2018-03-27T10:41:40.228Z,15.10
2018-03-27T10:44:07.763Z,14.90
2018-03-27T10:46:35.312Z,15.70
2018-03-27T10:49:02.845Z,16.50
2018-03-27T10:51:31.172Z,16.30
2018-03-27T10:53:58.701Z,16.30
2018-03-27T10:56:26.245Z,16.50
2018-03-27T10:58:53.777Z,15.50
2018-03-27T11:01:21.325Z,15.50
2018-03-27T11:03:48.867Z,15.60
2018-03-27T11:06:16.422Z,13.40
2018-03-27T11:08:43.942Z,12.90
2018-03-27T11:11:11.494Z,14.10
2018-03-27T11:13:39.012Z,15.40
2018-03-27T11:16:06.560Z,16.00
2018-03-27T11:18:34.084Z,17.50
2018-03-27T11:21:01.624Z,16.10
2018-03-27T11:23:29.161Z,14.80
2018-03-27T11:25:56.732Z,13.50
2018-03-27T11:28:25.024Z,11.70
2018-03-27T11:30:52.570Z,11.70
2018-03-27T11:33:20.903Z,10.20
2018-03-27T11:35:48.428Z,10.20
2018-03-27T11:38:15.949Z,9.50
2018-03-27T11:40:43.488Z,9.00
2018-03-27T11:43:11.018Z,8.40
2018-03-27T11:45:38.549Z,8.30
2018-03-27T11:48:06.070Z,8.00
2018-03-27T11:50:33.608Z,8.10
2018-03-27T11:53:01.122Z,7.80
2018-03-27T11:55:28.664Z,7.40
2018-03-27T11:57:56.986Z,6.70
2018-03-27T12:00:24.509Z,6.60
2018-03-27T12:02:52.812Z,5.90
2018-03-27T12:05:20.341Z,5.80
2018-03-27T12:07:47.890Z,5.40
2018-03-27T12:10:16.182Z,4.80
2018-03-27T12:12:43.729Z,4.80
2018-03-27T12:15:12.019Z,4.30
2018-03-27T12:17:39.568Z,4.30
2018-03-27T12:20:07.848Z,4.30
2018-03-27T12:22:36.154Z,4.20
2018-03-27T12:25:03.694Z,4.20
2018-03-27T12:27:31.236Z,4.10
2018-03-27T12:29:59.519Z,5.30
2018-03-27T12:32:27.069Z,5.20
2018-03-27T12:34:55.365Z,7.90
2018-03-27T12:37:22.916Z,7.80
2018-03-27T12:39:50.449Z,9.10
2018-03-27T12:42:18.846Z,10.00
2018-03-27T12:44:46.313Z,10.00
2018-03-27T12:47:13.859Z,11.00
2018-03-27T12:49:42.142Z,10.70
2018-03-27T12:52:09.712Z,10.70
2018-03-27T12:54:37.280Z,11.20
2018-03-27T12:57:04.840Z,11.00
2018-03-27T12:59:32.378Z,11.40
2018-03-27T13:01:59.922Z,12.50
2018-03-27T13:04:27.470Z,12.70
2018-03-27T13:06:55.814Z,13.40
2018-03-27T13:09:23.357Z,13.40
2018-03-27T13:11:50.928Z,13.20
2018-03-27T13:14:18.467Z,13.90
2018-03-27T13:16:46.071Z,13.50
2018-03-27T13:19:13.612Z,14.40
2018-03-27T13:21:41.210Z,15.10
2018-03-27T13:24:08.760Z,14.60
2018-03-27T13:26:37.095Z,13.70
2018-03-27T13:29:04.651Z,13.60
2018-03-27T13:31:32.244Z,13.90
2018-03-27T13:33:59.787Z,14.20
2018-03-27T13:36:27.352Z,14.60
2018-03-27T13:38:54.883Z,14.30
2018-03-27T13:41:22.453Z,13.10
2018-03-27T13:43:50.000Z,13.20
2018-03-27T13:46:17.553Z,12.80
2018-03-27T13:48:45.102Z,12.30
2018-03-27T13:51:12.661Z,11.90
2018-03-27T13:53:40.218Z,11.30
2018-03-27T13:56:07.762Z,10.60
2018-03-27T13:58:35.635Z,10.20
2018-03-27T14:01:03.244Z,9.90
2018-03-27T14:03:30.933Z,9.60
2018-03-27T14:05:59.236Z,8.80
2018-03-27T14:08:26.794Z,8.80
2018-03-27T14:10:54.328Z,8.40
2018-03-27T14:13:21.877Z,8.10
2018-03-27T14:15:50.274Z,7.40
2018-03-27T14:18:17.818Z,7.40
2018-03-27T14:20:46.113Z,6.00
2018-03-27T14:23:13.777Z,5.90
2018-03-27T14:25:41.324Z,5.50
2018-03-27T14:28:09.649Z,4.90
2018-03-27T14:30:37.181Z,4.90
2018-03-27T14:33:04.748Z,5.00
2018-03-27T14:35:32.297Z,5.30
2018-03-27T14:37:59.871Z,5.80
2018-03-27T14:40:28.931Z,6.10
2018-03-27T14:42:56.486Z,6.60
2018-03-27T14:45:24.015Z,7.00
2018-03-27T14:47:51.565Z,7.00
2018-03-27T14:50:19.123Z,7.60
2018-03-27T14:52:50.105Z,7.70
2018-03-27T14:55:17.718Z,7.50
2018-03-27T14:57:45.272Z,7.30
2018-03-27T15:00:12.905Z,7.10
2018-03-27T15:02:40.492Z,7.00
2018-03-27T15:05:08.050Z,7.00
2018-03-27T15:07:35.580Z,7.20
2018-03-27T15:10:03.154Z,7.20
2018-03-27T15:12:31.373Z,7.20
2018-03-27T15:14:58.897Z,7.30
2018-03-27T15:17:26.449Z,7.10
2018-03-27T15:19:53.974Z,7.20
2018-03-27T15:22:21.552Z,7.10
2018-03-27T15:24:49.074Z,7.10
2018-03-27T15:27:17.490Z,7.00
2018-03-27T15:29:45.017Z,7.00
2018-03-27T15:32:12.568Z,7.10
2018-03-27T15:34:40.950Z,7.30
2018-03-27T15:37:09.261Z,7.40
2018-03-27T15:39:36.842Z,7.40
2018-03-27T15:42:04.409Z,7.40
2018-03-27T15:44:31.979Z,7.40
2018-03-27T15:46:59.573Z,7.30
2018-03-27T15:49:27.130Z,7.30
2018-03-27T15:51:54.678Z,7.40
2018-03-27T15:54:22.232Z,7.50
2018-03-27T15:56:50.756Z,7.60
2018-03-27T15:59:18.308Z,7.60
2018-03-27T16:01:45.838Z,7.70
2018-03-27T16:04:14.153Z,7.70
2018-03-27T16:06:41.685Z,7.70
2018-03-27T16:09:09.262Z,7.80
2018-03-27T16:11:36.785Z,7.90
2018-03-27T16:14:05.093Z,7.80
2018-03-27T16:16:34.155Z,7.80
2018-03-27T16:19:01.857Z,7.70
2018-03-27T16:21:29.498Z,7.50
2018-03-27T16:23:57.053Z,7.30
2018-03-27T16:26:25.055Z,7.30
2018-03-27T16:28:52.756Z,7.20
2018-03-27T16:31:20.246Z,7.10
2018-03-27T16:33:47.789Z,7.10
2018-03-27T16:36:16.068Z,7.10
2018-03-27T16:38:44.373Z,7.00
2018-03-27T16:41:11.902Z,6.90
2018-03-27T16:43:39.437Z,6.90
2018-03-27T16:46:06.962Z,6.80
2018-03-27T16:48:34.513Z,6.70
2018-03-27T16:51:02.036Z,6.60
2018-03-27T16:53:30.348Z,6.50
2018-03-27T16:55:57.868Z,6.40
2018-03-27T16:58:26.177Z,6.30
2018-03-27T17:00:53.761Z,6.30
2018-03-27T17:03:21.299Z,6.30
2018-03-27T17:05:48.845Z,6.20
2018-03-27T17:08:16.380Z,6.10
2018-03-27T17:10:44.670Z,6.00
2018-03-27T17:13:12.225Z,6.00
2018-03-27T17:15:39.802Z,6.00
2018-03-27T17:18:07.349Z,5.90
2018-03-27T17:20:34.885Z,5.90
2018-03-27T17:23:02.441Z,5.80
2018-03-27T17:25:30.736Z,5.60
2018-03-27T17:28:03.278Z,5.60
2018-03-27T17:30:30.805Z,5.60
2018-03-27T17:32:58.404Z,5.50
2018-03-27T17:35:26.697Z,5.30
2018-03-27T17:37:54.481Z,5.20
2018-03-27T17:40:22.061Z,5.20
2018-03-27T17:42:49.614Z,5.10
2018-03-27T17:45:17.163Z,5.10
2018-03-27T17:47:44.719Z,5.10
2018-03-27T17:50:12.261Z,5.10
2018-03-27T17:52:39.789Z,5.00
2018-03-27T17:55:07.328Z,4.90
2018-03-27T17:57:34.862Z,4.80
2018-03-27T18:00:02.448Z,4.70
2018-03-27T18:02:30.476Z,4.60
2018-03-27T18:04:59.026Z,4.60
2018-03-27T18:07:27.505Z,4.50
2018-03-27T18:09:55.822Z,4.50
2018-03-27T18:12:23.388Z,4.50
2018-03-27T18:14:50.990Z,4.50
2018-03-27T18:17:18.562Z,4.60
2018-03-27T18:19:46.139Z,4.60
2018-03-27T18:22:13.775Z,4.50
2018-03-27T18:24:42.097Z,4.60
2018-03-27T18:27:09.638Z,4.60
2018-03-27T18:29:37.196Z,4.60
2018-03-27T18:32:12.268Z,4.50
2018-03-27T18:34:39.993Z,4.50
2018-03-27T18:37:07.940Z,4.50
2018-03-27T18:39:35.691Z,4.50
2018-03-27T18:42:03.655Z,4.50
2018-03-27T18:44:31.225Z,4.40
2018-03-27T18:46:59.551Z,4.40
2018-03-27T18:49:28.064Z,4.40
2018-03-27T18:51:55.745Z,4.40
2018-03-27T18:54:24.237Z,4.30
2018-03-27T18:56:52.729Z,4.30
2018-03-27T18:59:20.347Z,4.20
2018-03-27T19:01:47.878Z,4.20
2018-03-27T19:04:15.555Z,4.10
2018-03-27T19:06:43.428Z,4.10
2018-03-27T19:09:11.128Z,4.10
2018-03-27T19:11:39.393Z,4.00
2018-03-27T19:14:07.930Z,3.90
2018-03-27T19:16:36.217Z,3.90
2018-03-27T19:19:03.803Z,3.90
2018-03-27T19:21:32.161Z,3.80
2018-03-27T19:23:59.713Z,3.80
2018-03-27T19:26:27.239Z,3.60
2018-03-27T19:28:54.993Z,3.50
2018-03-27T19:31:22.529Z,3.60
2018-03-27T19:33:50.845Z,3.50
2018-03-27T19:36:18.370Z,3.50
2018-03-27T19:38:45.967Z,3.40
2018-03-27T19:41:13.531Z,3.50
2018-03-27T19:43:41.061Z,3.50
2018-03-27T19:46:08.605Z,3.40
2018-03-27T19:48:36.150Z,3.40
2018-03-27T19:51:04.452Z,3.50
2018-03-27T19:53:32.045Z,3.50
2018-03-27T19:55:59.569Z,3.60
2018-03-27T19:58:27.093Z,3.60
2018-03-27T20:00:55.417Z,3.60
2018-03-27T20:03:23.714Z,3.60
2018-03-27T20:05:51.266Z,3.60
2018-03-27T20:08:18.794Z,3.60
2018-03-27T20:10:46.340Z,3.60
2018-03-27T20:13:22.786Z,3.50
2018-03-27T20:15:50.321Z,3.50
2018-03-27T20:18:17.859Z,3.50
2018-03-27T20:20:45.431Z,3.40
2018-03-27T20:23:12.948Z,3.40
2018-03-27T20:25:40.498Z,3.40
2018-03-27T20:28:08.039Z,3.40
2018-03-27T20:30:35.585Z,3.40
2018-03-27T20:33:03.111Z,3.40
2018-03-27T20:35:30.678Z,3.40
2018-03-27T20:37:58.211Z,3.40
2018-03-27T20:40:25.768Z,3.40
2018-03-27T20:42:53.301Z,3.40
2018-03-27T20:47:53.656Z,3.40
2018-03-27T20:50:21.200Z,3.40
2018-03-27T20:52:49.508Z,3.50
2018-03-27T20:55:17.069Z,3.50
2018-03-27T20:57:44.597Z,3.50
2018-03-27T21:00:12.137Z,3.50
2018-03-27T21:02:39.660Z,3.50
2018-03-27T21:05:07.198Z,3.50
2018-03-27T21:07:34.757Z,3.50
2018-03-27T21:10:02.293Z,3.60
2018-03-27T21:12:29.842Z,3.60
2018-03-27T21:14:58.137Z,3.60
2018-03-27T21:17:25.693Z,3.60
2018-03-27T21:19:53.224Z,3.70
2018-03-27T21:22:21.533Z,4.00
2018-03-27T21:24:49.056Z,4.00
2018-03-27T21:27:16.597Z,4.00
2018-03-27T21:29:44.124Z,4.00
2018-03-27T21:32:11.736Z,4.00
2018-03-27T21:34:39.283Z,4.00
2018-03-27T21:37:06.826Z,4.10
2018-03-27T21:39:34.345Z,4.10
2018-03-27T21:42:01.897Z,4.10
2018-03-27T21:44:29.425Z,4.00
2018-03-27T21:46:56.973Z,3.90
2018-03-27T21:49:24.508Z,3.70
2018-03-27T21:51:52.053Z,3.60
2018-03-27T21:54:19.580Z,3.60
2018-03-27T21:56:47.129Z,3.50
2018-03-27T21:59:14.671Z,3.50
2018-03-27T22:01:42.976Z,3.50
2018-03-27T22:04:10.497Z,3.50
2018-03-27T22:06:38.020Z,3.50
2018-03-27T22:09:05.586Z,3.70
2018-03-27T22:11:33.122Z,3.80
2018-03-27T22:14:00.670Z,3.90
2018-03-27T22:16:28.206Z,3.80
2018-03-27T22:18:56.564Z,3.80
2018-03-27T22:21:24.092Z,3.70
2018-03-27T22:23:51.637Z,3.80
2018-03-27T22:26:19.172Z,3.80
2018-03-27T22:28:46.721Z,3.70
2018-03-27T22:31:15.007Z,3.70
2018-03-27T22:33:42.560Z,3.60
2018-03-27T22:36:10.848Z,3.60
2018-03-27T22:38:38.397Z,3.60
2018-03-27T22:41:06.712Z,3.60
2018-03-27T22:43:34.262Z,3.60
2018-03-27T22:46:02.246Z,3.60
2018-03-27T22:48:29.804Z,3.60
2018-03-27T22:50:57.377Z,3.70
2018-03-27T22:53:24.920Z,3.70
2018-03-27T22:55:52.445Z,3.70
2018-03-27T22:58:20.009Z,3.70
2018-03-27T23:00:47.541Z,3.70
2018-03-27T23:03:15.867Z,3.70
2018-03-27T23:05:43.393Z,3.70
2018-03-27T23:08:10.934Z,3.70
2018-03-27T23:10:38.500Z,3.80
2018-03-27T23:13:06.817Z,3.80
2018-03-27T23:15:34.336Z,3.80
2018-03-27T23:18:02.647Z,4.10
2018-03-27T23:20:30.182Z,4.10
2018-03-27T23:22:57.726Z,4.30
2018-03-27T23:25:25.262Z,4.30
2018-03-27T23:27:52.796Z,4.30
2018-03-27T23:30:20.319Z,4.30
2018-03-27T23:32:47.892Z,4.30
2018-03-27T23:35:15.418Z,4.30
2018-03-27T23:37:43.728Z,4.40
2018-03-27T23:40:11.278Z,4.40
2018-03-27T23:42:38.822Z,4.40
2018-03-27T23:45:06.349Z,4.40
2018-03-27T23:47:33.864Z,4.30
2018-03-27T23:50:01.409Z,4.40
2018-03-27T23:52:28.985Z,4.40
2018-03-27T23:54:56.516Z,4.40
2018-03-27T23:57:24.811Z,4.50
2018-03-27T23:59:52.353Z,4.40
